createdAt,value
2018-07-03T00:01:30.143Z,11.07
2018-07-03T00:03:57.280Z,14.07
2018-07-03T00:06:24.444Z,23.47
2018-07-03T00:08:51.596Z,17.43
2018-07-03T00:11:18.752Z,17.93
2018-07-03T00:13:45.879Z,16.43
2018-07-03T00:16:18.677Z,21.63
2018-07-03T00:18:45.824Z,17.97
2018-07-03T00:21:12.987Z,13.03
2018-07-03T00:23:40.156Z,22.93
2018-07-03T00:26:07.292Z,20.93
2018-07-03T00:28:34.388Z,18.70
2018-07-03T00:31:01.533Z,16.10
2018-07-03T00:33:28.708Z,11.87
2018-07-03T00:35:55.885Z,18.37
2018-07-03T00:38:23.049Z,15.60
2018-07-03T00:40:50.363Z,21.50
2018-07-03T00:43:17.532Z,17.13
2018-07-03T00:45:44.660Z,24.73
2018-07-03T00:48:11.790Z,29.73
2018-07-03T00:50:38.900Z,26.93
2018-07-03T00:53:06.043Z,22.43
2018-07-03T00:55:33.218Z,23.83
2018-07-03T00:58:00.353Z,13.70
2018-07-03T01:00:32.983Z,26.27
2018-07-03T01:03:00.732Z,11.80
2018-07-03T01:05:28.080Z,36.30
2018-07-03T01:07:55.432Z,32.00
2018-07-03T01:10:22.575Z,14.00
2018-07-03T01:12:49.714Z,15.53
2018-07-03T01:15:16.876Z,17.30
2018-07-03T01:17:43.997Z,13.17
2018-07-03T01:20:11.172Z,12.13
2018-07-03T01:22:38.367Z,17.83
2018-07-03T01:25:05.626Z,9.70
2018-07-03T01:27:32.853Z,19.10
2018-07-03T01:30:00.094Z,17.70
2018-07-03T01:32:27.241Z,19.30
2018-07-03T01:34:54.355Z,10.47
2018-07-03T01:37:21.461Z,13.50
2018-07-03T01:39:48.680Z,9.50
2018-07-03T01:42:15.848Z,14.33
2018-07-03T01:44:42.948Z,11.70
2018-07-03T01:47:10.068Z,11.87
2018-07-03T01:49:37.246Z,12.23
2018-07-03T01:52:04.400Z,9.97
2018-07-03T01:54:31.520Z,4.90
2018-07-03T01:56:58.662Z,5.80
2018-07-03T01:59:25.757Z,6.83
2018-07-03T02:01:52.893Z,7.30
2018-07-03T02:04:19.965Z,15.30
2018-07-03T02:06:47.089Z,18.20
2018-07-03T02:09:14.201Z,10.80
2018-07-03T02:11:42.455Z,16.90
2018-07-03T02:14:09.564Z,14.57
2018-07-03T02:16:36.737Z,11.37
2018-07-03T02:19:04.460Z,14.90
2018-07-03T02:21:31.713Z,14.33
2018-07-03T02:23:59.141Z,26.30
2018-07-03T02:26:26.272Z,19.73
2018-07-03T02:28:53.608Z,14.80
2018-07-03T02:31:20.793Z,13.57
2018-07-03T02:33:47.938Z,14.60
2018-07-03T02:36:15.069Z,19.40
2018-07-03T02:38:42.217Z,20.43
2018-07-03T02:41:09.412Z,18.73
2018-07-03T02:43:36.602Z,17.70
2018-07-03T02:46:04.240Z,16.57
2018-07-03T02:48:31.341Z,11.83
2018-07-03T02:50:58.524Z,12.30
2018-07-03T02:53:25.660Z,9.23
2018-07-03T02:55:52.778Z,13.70
2018-07-03T02:58:20.063Z,9.20
2018-07-03T03:00:47.176Z,14.00
2018-07-03T03:03:14.281Z,13.33
2018-07-03T03:05:41.428Z,16.47
2018-07-03T03:08:08.583Z,13.63
2018-07-03T03:10:35.660Z,13.80
2018-07-03T03:13:02.809Z,19.97
2018-07-03T03:15:29.941Z,19.77
2018-07-03T03:17:57.078Z,18.43
2018-07-03T03:20:24.229Z,32.00
2018-07-03T03:22:51.408Z,21.10
2018-07-03T03:25:18.594Z,31.37
2018-07-03T03:27:45.780Z,29.17
2018-07-03T03:30:12.951Z,20.23
2018-07-03T03:32:40.045Z,17.73
2018-07-03T03:35:07.117Z,22.63
2018-07-03T03:37:34.200Z,14.67
2018-07-03T03:40:01.370Z,28.37
2018-07-03T03:42:28.537Z,13.47
2018-07-03T03:44:55.865Z,8.30
2018-07-03T03:47:23.021Z,35.70
2018-07-03T03:49:50.125Z,26.77
2018-07-03T03:52:17.279Z,20.63
2018-07-03T03:54:44.489Z,31.77
2018-07-03T03:57:11.596Z,34.40
2018-07-03T03:59:38.733Z,34.23
2018-07-03T04:02:05.959Z,30.70
2018-07-03T04:04:33.093Z,26.53
2018-07-03T04:07:00.356Z,34.37
2018-07-03T04:09:27.487Z,33.33
2018-07-03T04:11:54.656Z,24.07
2018-07-03T04:14:21.758Z,25.80
2018-07-03T04:16:48.895Z,26.83
2018-07-03T04:19:16.027Z,14.63
2018-07-03T04:21:43.136Z,15.27
2018-07-03T04:24:10.284Z,11.83
2018-07-03T04:26:37.407Z,17.37
2018-07-03T04:29:04.553Z,12.00
2018-07-03T04:31:31.720Z,28.03
2018-07-03T04:33:58.825Z,21.57
2018-07-03T04:36:25.928Z,31.07
2018-07-03T04:38:53.061Z,18.60
2018-07-03T04:41:20.214Z,17.03
2018-07-03T04:43:47.365Z,7.87
2018-07-03T04:46:14.483Z,10.40
2018-07-03T04:48:41.620Z,14.83
2018-07-03T04:51:08.741Z,10.83
2018-07-03T04:53:35.863Z,2.70
2018-07-03T04:56:03.088Z,12.00
2018-07-03T04:58:30.188Z,7.53
2018-07-03T05:00:57.316Z,13.80
2018-07-03T05:03:24.499Z,15.20
2018-07-03T05:05:51.640Z,8.30
2018-07-03T05:08:18.830Z,9.70
2018-07-03T05:10:45.966Z,7.80
2018-07-03T05:13:13.092Z,5.50
2018-07-03T05:15:40.243Z,8.17
2018-07-03T05:18:07.360Z,10.60
2018-07-03T05:20:34.489Z,5.40
2018-07-03T05:23:01.568Z,10.90
2018-07-03T05:25:28.692Z,7.73
2018-07-03T05:27:55.901Z,13.63
2018-07-03T05:30:23.000Z,7.30
2018-07-03T05:32:50.125Z,6.40
2018-07-03T05:35:17.256Z,10.43
2018-07-03T05:37:44.457Z,4.83
2018-07-03T05:40:11.617Z,9.60
2018-07-03T05:42:38.772Z,4.67
2018-07-03T05:45:05.984Z,10.83
2018-07-03T05:47:33.111Z,8.77
2018-07-03T05:50:00.220Z,5.90
2018-07-03T05:52:27.342Z,11.57
2018-07-03T05:54:54.548Z,10.07
2018-07-03T05:57:21.729Z,5.13
2018-07-03T05:59:48.859Z,6.03
2018-07-03T06:02:18.245Z,2.10
2018-07-03T06:04:45.361Z,6.00
2018-07-03T06:07:12.531Z,8.33
2018-07-03T06:09:39.621Z,6.87
2018-07-03T06:12:06.821Z,7.70
2018-07-03T06:14:33.947Z,3.53
2018-07-03T06:17:01.059Z,4.50
2018-07-03T06:19:28.175Z,5.03
2018-07-03T06:21:55.969Z,4.47
2018-07-03T06:24:23.259Z,6.37
2018-07-03T06:26:51.321Z,3.67
2018-07-03T06:29:18.470Z,3.63
2018-07-03T06:31:45.907Z,3.53
2018-07-03T06:34:13.051Z,4.40
2018-07-03T06:36:40.244Z,4.60
2018-07-03T06:39:09.913Z,3.00
2018-07-03T06:41:37.295Z,3.50
2018-07-03T06:44:04.408Z,1.57
2018-07-03T06:46:31.567Z,3.87
2018-07-03T06:48:58.783Z,3.40
2018-07-03T06:51:25.937Z,4.10
2018-07-03T06:53:53.096Z,3.93
2018-07-03T06:56:20.244Z,2.93
2018-07-03T06:58:47.408Z,3.17
2018-07-03T07:01:14.629Z,2.47
2018-07-03T07:03:41.749Z,3.20
2018-07-03T07:06:08.844Z,1.30
2018-07-03T07:08:36.203Z,2.50
2018-07-03T07:11:03.361Z,2.13
2018-07-03T07:13:30.504Z,4.23
2018-07-03T07:15:57.636Z,2.80
2018-07-03T07:18:24.804Z,5.77
2018-07-03T07:20:51.923Z,1.30
2018-07-03T07:23:19.062Z,2.00
2018-07-03T07:25:46.176Z,1.80
2018-07-03T07:28:13.280Z,2.10
2018-07-03T07:30:40.423Z,2.90
2018-07-03T07:33:07.604Z,2.10
2018-07-03T07:35:34.723Z,1.43
2018-07-03T07:38:01.948Z,2.47
2018-07-03T07:40:29.108Z,1.57
2018-07-03T07:42:56.265Z,2.00
2018-07-03T07:45:23.404Z,1.60
2018-07-03T07:47:50.592Z,2.13
2018-07-03T07:50:17.714Z,2.27
2018-07-03T07:52:44.813Z,1.70
2018-07-03T07:55:11.983Z,2.40
2018-07-03T07:57:39.093Z,2.90
2018-07-03T08:00:06.393Z,1.63
2018-07-03T08:02:33.566Z,3.67
2018-07-03T08:05:00.732Z,2.90
2018-07-03T08:07:27.936Z,1.87
2018-07-03T08:09:55.109Z,2.13
2018-07-03T08:12:22.259Z,1.83
2018-07-03T08:14:49.408Z,2.83
2018-07-03T08:17:16.591Z,2.50
2018-07-03T08:19:43.688Z,1.63
2018-07-03T08:22:10.813Z,2.10
2018-07-03T08:24:37.932Z,1.57
2018-07-03T08:27:05.145Z,2.17
2018-07-03T08:29:32.316Z,1.50
2018-07-03T08:31:59.421Z,2.53
2018-07-03T08:34:26.624Z,1.20
2018-07-03T08:36:54.061Z,2.30
2018-07-03T08:39:21.236Z,2.90
2018-07-03T08:41:48.424Z,1.50
2018-07-03T08:44:15.584Z,2.13
2018-07-03T08:46:42.757Z,1.50
2018-07-03T08:49:09.916Z,2.03
2018-07-03T08:51:37.564Z,5.87
2018-07-03T08:54:04.913Z,5.70
2018-07-03T08:56:32.064Z,4.13
2018-07-03T08:58:59.228Z,3.40
2018-07-03T09:01:26.376Z,2.33
2018-07-03T09:03:53.523Z,4.30
2018-07-03T09:06:20.692Z,2.23
2018-07-03T09:08:47.853Z,13.03
2018-07-03T09:11:14.944Z,3.00
2018-07-03T09:13:42.404Z,2.03
2018-07-03T09:16:09.569Z,1.20
2018-07-03T09:18:36.728Z,2.33
2018-07-03T09:21:03.907Z,2.00
2018-07-03T09:23:31.062Z,2.60
2018-07-03T09:25:58.244Z,1.67
2018-07-03T09:28:25.403Z,3.10
2018-07-03T09:30:52.532Z,2.30
2018-07-03T09:33:19.643Z,1.90
2018-07-03T09:35:46.794Z,2.07
2018-07-03T09:38:13.984Z,1.20
2018-07-03T09:40:41.102Z,2.83
2018-07-03T09:43:08.283Z,2.30
2018-07-03T09:45:35.435Z,5.47
2018-07-03T09:48:02.963Z,1.33
2018-07-03T09:50:30.141Z,2.70
2018-07-03T09:52:57.345Z,2.00
2018-07-03T09:55:24.459Z,8.17
2018-07-03T09:57:51.980Z,1.57
2018-07-03T10:00:24.840Z,1.77
2018-07-03T10:02:51.980Z,4.53
2018-07-03T10:05:19.131Z,2.87
2018-07-03T10:07:46.304Z,2.13
2018-07-03T10:10:13.420Z,1.10
2018-07-03T10:12:40.559Z,2.30
2018-07-03T10:15:07.669Z,1.20
2018-07-03T10:17:34.789Z,1.20
2018-07-03T10:20:01.914Z,1.10
2018-07-03T10:22:29.027Z,1.10
2018-07-03T10:24:56.168Z,1.83
2018-07-03T10:27:23.371Z,1.90
2018-07-03T10:29:50.481Z,2.30
2018-07-03T10:32:17.692Z,1.40
2018-07-03T10:34:44.869Z,5.60
2018-07-03T10:37:11.996Z,4.33
2018-07-03T10:39:39.144Z,1.87
2018-07-03T10:42:06.292Z,1.80
2018-07-03T10:44:33.517Z,2.50
2018-07-03T10:47:00.674Z,2.07
2018-07-03T10:49:27.785Z,1.30
2018-07-03T10:51:54.906Z,1.17
2018-07-03T10:54:22.159Z,7.03
2018-07-03T10:56:49.272Z,1.80
2018-07-03T10:59:16.457Z,0.80
2018-07-03T11:01:43.591Z,1.80
2018-07-03T11:04:10.721Z,1.17
2018-07-03T11:06:37.844Z,2.03
2018-07-03T11:09:07.974Z,2.43
2018-07-03T11:11:35.143Z,1.83
2018-07-03T11:14:02.552Z,1.07
2018-07-03T11:16:29.624Z,2.27
2018-07-03T11:18:56.748Z,1.20
2018-07-03T11:21:23.913Z,1.33
2018-07-03T11:23:51.137Z,1.10
2018-07-03T11:26:18.280Z,1.30
2018-07-03T11:28:45.405Z,1.50
2018-07-03T11:31:12.563Z,1.20
2018-07-03T11:33:39.695Z,1.33
2018-07-03T11:36:08.260Z,1.93
2018-07-03T11:38:35.429Z,1.97
2018-07-03T11:41:02.624Z,1.00
2018-07-03T11:43:29.769Z,1.70
2018-07-03T11:45:56.946Z,2.50
2018-07-03T11:48:24.124Z,2.40
2018-07-03T11:50:51.239Z,1.03
2018-07-03T11:53:18.400Z,1.03
2018-07-03T11:55:45.544Z,2.20
2018-07-03T11:58:12.677Z,2.60
2018-07-03T12:00:39.852Z,2.27
2018-07-03T12:03:07.029Z,1.43
2018-07-03T12:05:34.169Z,2.60
2018-07-03T12:08:01.276Z,1.67
2018-07-03T12:10:28.416Z,1.40
2018-07-03T12:12:55.592Z,3.33
2018-07-03T12:15:22.752Z,1.67
2018-07-03T12:17:49.951Z,1.50
2018-07-03T12:20:17.066Z,1.33
2018-07-03T12:22:44.268Z,1.10
2018-07-03T12:25:11.463Z,1.30
2018-07-03T12:27:38.585Z,1.00
2018-07-03T12:30:08.144Z,1.43
2018-07-03T12:32:35.281Z,1.83
2018-07-03T12:35:02.570Z,2.37
2018-07-03T12:37:29.785Z,2.00
2018-07-03T12:39:56.912Z,1.87
2018-07-03T12:42:24.151Z,1.53
2018-07-03T12:44:51.346Z,1.30
2018-07-03T12:47:18.469Z,2.93
2018-07-03T12:49:45.687Z,4.50
2018-07-03T12:52:12.789Z,4.10
2018-07-03T12:54:39.934Z,1.20
2018-07-03T12:57:07.093Z,2.30
2018-07-03T12:59:34.247Z,1.30
2018-07-03T13:02:01.438Z,1.67
2018-07-03T13:04:28.597Z,1.40
2018-07-03T13:06:55.761Z,1.10
2018-07-03T13:09:22.888Z,2.37
2018-07-03T13:11:50.106Z,1.10
2018-07-03T13:14:17.288Z,2.60
2018-07-03T13:16:44.488Z,3.73
2018-07-03T13:19:11.676Z,1.13
2018-07-03T13:21:38.844Z,3.23
2018-07-03T13:24:06.029Z,2.37
2018-07-03T13:26:33.215Z,1.20
2018-07-03T13:29:00.377Z,1.00
2018-07-03T13:31:27.647Z,1.50
2018-07-03T13:33:54.806Z,1.13
2018-07-03T13:36:22.123Z,1.50
2018-07-03T13:38:49.267Z,1.70
2018-07-03T13:41:16.393Z,1.40
2018-07-03T13:43:43.564Z,1.13
2018-07-03T13:46:10.689Z,1.40
2018-07-03T13:48:37.893Z,3.73
2018-07-03T13:51:05.176Z,3.63
2018-07-03T13:53:32.336Z,2.60
2018-07-03T13:55:59.505Z,1.20
2018-07-03T13:58:27.107Z,2.33
2018-07-03T14:00:54.224Z,1.93
2018-07-03T14:03:21.426Z,1.70
2018-07-03T14:05:48.617Z,1.30
2018-07-03T14:08:15.752Z,2.30
2018-07-03T14:10:42.987Z,3.13
2018-07-03T14:13:10.158Z,1.40
2018-07-03T14:15:37.415Z,1.50
2018-07-03T14:18:04.603Z,1.27
2018-07-03T14:20:31.771Z,1.10
2018-07-03T14:22:58.922Z,2.50
2018-07-03T14:25:26.071Z,1.13
2018-07-03T14:27:53.213Z,2.67
2018-07-03T14:30:20.394Z,1.63
2018-07-03T14:32:47.528Z,3.63
2018-07-03T14:35:14.724Z,2.63
2018-07-03T14:37:41.860Z,1.20
2018-07-03T14:40:12.701Z,2.80
2018-07-03T14:42:44.476Z,2.20
2018-07-03T14:45:11.651Z,2.33
2018-07-03T14:47:38.840Z,2.80
2018-07-03T14:50:06.151Z,1.57
2018-07-03T14:52:33.375Z,2.90
2018-07-03T14:55:00.515Z,2.97
2018-07-03T14:57:27.712Z,1.97
2018-07-03T14:59:54.939Z,1.20
2018-07-03T15:02:22.243Z,1.93
2018-07-03T15:04:49.360Z,2.07
2018-07-03T15:07:16.526Z,1.60
2018-07-03T15:09:43.696Z,3.03
2018-07-03T15:12:10.973Z,1.70
2018-07-03T15:14:38.250Z,2.10
2018-07-03T15:17:05.492Z,1.80
2018-07-03T15:19:38.487Z,3.10
2018-07-03T15:22:05.923Z,1.10
2018-07-03T15:24:33.100Z,3.67
2018-07-03T15:27:00.267Z,1.90
2018-07-03T15:29:27.508Z,3.13
2018-07-03T15:31:54.705Z,1.90
2018-07-03T15:34:21.880Z,3.30
2018-07-03T15:36:49.056Z,1.10
2018-07-03T15:39:16.216Z,1.33
2018-07-03T15:41:43.351Z,1.20
2018-07-03T15:44:22.101Z,1.80
2018-07-03T15:46:49.301Z,2.43
2018-07-03T15:49:16.671Z,1.63
2018-07-03T15:51:44.313Z,1.20
2018-07-03T15:54:13.308Z,1.97
2018-07-03T15:56:40.560Z,1.20
2018-07-03T15:59:07.917Z,1.43
2018-07-03T16:01:35.125Z,1.10
2018-07-03T16:04:13.912Z,1.40
2018-07-03T16:07:09.352Z,2.23
2018-07-03T16:09:36.596Z,1.40
2018-07-03T16:12:03.808Z,3.50
2018-07-03T16:14:31.068Z,1.00
2018-07-03T16:16:58.257Z,0.90
2018-07-03T16:19:31.246Z,1.20
2018-07-03T16:21:59.004Z,1.33
2018-07-03T16:24:26.215Z,1.97
2018-07-03T16:26:53.593Z,2.30
2018-07-03T16:29:23.119Z,1.63
2018-07-03T16:31:50.336Z,2.90
2018-07-03T16:34:17.525Z,6.27
2018-07-03T16:36:44.720Z,1.10
2018-07-03T16:39:12.505Z,1.57
2018-07-03T16:41:39.696Z,1.20
2018-07-03T16:44:07.439Z,1.40
2018-07-03T16:46:34.631Z,1.43
2018-07-03T16:49:01.764Z,1.50
2018-07-03T16:51:28.923Z,1.30
2018-07-03T16:53:56.579Z,3.10
2018-07-03T16:56:24.088Z,2.67
2018-07-03T16:58:51.540Z,1.40
2018-07-03T17:01:18.846Z,2.00
2018-07-03T17:03:45.994Z,2.00
2018-07-03T17:06:13.238Z,1.20
2018-07-03T17:08:40.414Z,1.30
2018-07-03T17:11:07.773Z,1.53
2018-07-03T17:13:35.012Z,2.23
2018-07-03T17:16:02.133Z,1.40
2018-07-03T17:18:30.821Z,1.70
2018-07-03T17:20:58.272Z,1.63
2018-07-03T17:23:25.396Z,2.17
2018-07-03T17:25:52.553Z,1.53
2018-07-03T17:28:19.744Z,1.33
2018-07-03T17:30:46.848Z,1.23
2018-07-03T17:33:14.083Z,1.97
2018-07-03T17:35:41.199Z,1.50
2018-07-03T17:38:08.350Z,4.03
2018-07-03T17:40:47.082Z,1.67
2018-07-03T17:44:23.625Z,2.17
2018-07-03T17:46:50.772Z,1.40
2018-07-03T17:49:17.928Z,1.60
2018-07-03T17:51:51.927Z,1.80
2018-07-03T17:54:19.110Z,2.20
2018-07-03T17:56:46.269Z,5.47
2018-07-03T17:59:13.434Z,1.97
2018-07-03T18:01:40.613Z,4.20
2018-07-03T18:04:07.771Z,2.00
2018-07-03T18:06:34.937Z,6.97
2018-07-03T18:09:02.212Z,2.60
2018-07-03T18:11:29.421Z,1.50
2018-07-03T18:13:56.605Z,2.80
2018-07-03T18:16:23.745Z,6.13
2018-07-03T18:18:56.589Z,5.13
2018-07-03T18:21:23.672Z,3.87
2018-07-03T18:23:50.849Z,2.30
2018-07-03T18:26:17.952Z,1.20
2018-07-03T18:28:45.128Z,1.80
2018-07-03T18:31:12.261Z,8.70
2018-07-03T18:33:39.457Z,3.17
2018-07-03T18:36:06.668Z,4.03
2018-07-03T18:38:33.824Z,10.03
2018-07-03T18:41:01.028Z,5.27
2018-07-03T18:43:28.223Z,2.10
2018-07-03T18:45:55.376Z,2.80
2018-07-03T18:48:22.600Z,4.00
2018-07-03T18:50:49.760Z,3.10
2018-07-03T18:53:16.930Z,1.83
2018-07-03T18:55:44.130Z,1.23
2018-07-03T18:58:11.293Z,2.50
2018-07-03T19:00:38.477Z,4.70
2018-07-03T19:03:05.681Z,3.77
2018-07-03T19:05:32.918Z,1.60
2018-07-03T19:08:00.098Z,2.03
2018-07-03T19:10:27.283Z,3.43
2018-07-03T19:12:54.444Z,4.03
2018-07-03T19:15:21.621Z,4.37
2018-07-03T19:17:48.776Z,3.03
2018-07-03T19:20:15.980Z,3.03
2018-07-03T19:22:43.170Z,2.53
2018-07-03T19:25:10.348Z,3.00
2018-07-03T19:27:37.529Z,1.90
2018-07-03T19:30:05.085Z,3.50
2018-07-03T19:32:32.324Z,4.30
2018-07-03T19:34:59.556Z,4.97
2018-07-03T19:37:26.722Z,3.00
2018-07-03T19:39:53.988Z,11.60
2018-07-03T19:42:21.188Z,7.37
2018-07-03T19:44:48.374Z,3.30
2018-07-03T19:47:15.533Z,9.90
2018-07-03T19:49:42.755Z,3.30
2018-07-03T19:52:09.909Z,2.90
2018-07-03T19:54:37.124Z,3.80
2018-07-03T19:57:04.350Z,8.00
2018-07-03T19:59:31.504Z,11.50
2018-07-03T20:01:58.655Z,4.83
2018-07-03T20:04:25.796Z,7.17
2018-07-03T20:06:52.999Z,7.63
2018-07-03T20:09:20.177Z,7.60
2018-07-03T20:11:47.269Z,7.17
2018-07-03T20:14:14.480Z,6.47
2018-07-03T20:16:41.625Z,6.73
2018-07-03T20:19:12.219Z,8.63
2018-07-03T20:21:40.533Z,5.47
2018-07-03T20:24:07.712Z,18.73
2018-07-03T20:26:34.988Z,12.50
2018-07-03T20:29:02.085Z,6.03
2018-07-03T20:31:29.308Z,8.80
2018-07-03T20:33:56.441Z,11.57
2018-07-03T20:36:23.695Z,10.20
2018-07-03T20:38:50.919Z,7.87
2018-07-03T20:41:18.064Z,4.00
2018-07-03T20:43:45.243Z,4.13
2018-07-03T20:46:12.409Z,4.63
2018-07-03T20:51:13.484Z,3.73
2018-07-03T20:53:40.623Z,6.43
2018-07-03T20:56:07.799Z,6.13
2018-07-03T20:58:35.006Z,5.50
2018-07-03T21:01:02.150Z,11.63
2018-07-03T21:03:29.299Z,6.00
2018-07-03T21:05:56.452Z,3.70
2018-07-03T21:08:23.615Z,7.43
2018-07-03T21:10:50.717Z,5.77
2018-07-03T21:13:17.876Z,5.67
2018-07-03T21:15:45.309Z,4.53
2018-07-03T21:18:12.425Z,7.00
2018-07-03T21:20:39.593Z,6.17
2018-07-03T21:23:06.755Z,7.00
2018-07-03T21:25:33.899Z,11.40
2018-07-03T21:28:01.021Z,12.23
2018-07-03T21:30:28.173Z,21.10
2018-07-03T21:32:55.316Z,16.23
2018-07-03T21:35:22.452Z,19.57
2018-07-03T21:37:49.556Z,20.23
2018-07-03T21:40:16.697Z,22.90
2018-07-03T21:42:43.785Z,13.03
2018-07-03T21:45:10.911Z,15.87
2018-07-03T21:47:45.121Z,16.17
2018-07-03T21:50:12.245Z,23.17
2018-07-03T21:52:39.433Z,20.20
2018-07-03T21:55:06.556Z,22.93
2018-07-03T21:57:33.648Z,18.63
2018-07-03T22:00:00.761Z,19.17
2018-07-03T22:02:27.860Z,22.20
2018-07-03T22:04:54.956Z,19.63
2018-07-03T22:07:22.137Z,17.60
2018-07-03T22:09:49.309Z,20.17
2018-07-03T22:12:16.461Z,18.57
2018-07-03T22:14:43.629Z,12.07
2018-07-03T22:17:11.553Z,14.07
2018-07-03T22:19:38.849Z,15.50
2018-07-03T22:22:06.154Z,8.60
2018-07-03T22:24:34.000Z,15.73
2018-07-03T22:27:01.120Z,19.03
2018-07-03T22:29:28.234Z,8.20
2018-07-03T22:31:55.436Z,15.53
2018-07-03T22:34:22.611Z,14.77
2018-07-03T22:36:49.748Z,10.87
2018-07-03T22:39:17.218Z,15.13
2018-07-03T22:41:44.386Z,17.40
2018-07-03T22:44:11.581Z,9.33
2018-07-03T22:46:38.771Z,13.43
2018-07-03T22:49:05.915Z,10.00
2018-07-03T22:51:33.040Z,13.67
2018-07-03T22:54:00.224Z,13.77
2018-07-03T22:56:27.389Z,17.33
2018-07-03T22:58:54.512Z,14.17
2018-07-03T23:01:21.632Z,19.70
2018-07-03T23:03:48.741Z,24.23
2018-07-03T23:06:15.881Z,21.43
2018-07-03T23:08:43.017Z,15.17
2018-07-03T23:11:10.172Z,14.03
2018-07-03T23:13:37.309Z,14.70
2018-07-03T23:16:04.470Z,20.40
2018-07-03T23:18:31.688Z,19.40
2018-07-03T23:20:58.828Z,14.53
2018-07-03T23:23:25.956Z,21.40
2018-07-03T23:25:53.180Z,14.17
2018-07-03T23:28:20.308Z,16.23
2018-07-03T23:30:47.457Z,18.67
2018-07-03T23:33:14.570Z,14.63
2018-07-03T23:35:41.701Z,12.93
2018-07-03T23:38:08.793Z,13.90
2018-07-03T23:40:35.944Z,19.20
2018-07-03T23:43:03.084Z,12.63
2018-07-03T23:45:44.539Z,17.57
2018-07-03T23:48:23.289Z,9.00
2018-07-03T23:51:02.117Z,19.53
2018-07-03T23:53:40.780Z,15.03
2018-07-03T23:56:19.257Z,26.97
2018-07-03T23:58:57.948Z,15.93
